createdAt,value
2019-05-20T00:00:25.076Z,93.35
2019-05-20T00:01:25.082Z,93.45
2019-05-20T00:02:28.372Z,93.64
2019-05-20T00:03:25.105Z,93.93
2019-05-20T00:04:25.121Z,93.93
2019-05-20T00:05:25.205Z,93.54
2019-05-20T00:06:25.131Z,93.54
2019-05-20T00:07:25.135Z,93.54
2019-05-20T00:08:25.148Z,92.97
2019-05-20T00:09:25.161Z,93.07
2019-05-20T00:10:25.165Z,92.97
2019-05-20T00:11:25.175Z,93.64
2019-05-20T00:12:25.186Z,93.45
2019-05-20T00:13:25.192Z,93.50
2019-05-20T00:14:25.200Z,93.40
2019-05-20T00:15:25.214Z,94.17
2019-05-20T00:16:25.224Z,94.84
2019-05-20T00:17:25.247Z,94.36
2019-05-20T00:18:25.251Z,94.26
2019-05-20T00:19:25.259Z,94.45
2019-05-20T00:20:25.257Z,94.74
2019-05-20T00:21:25.268Z,94.93
2019-05-20T00:22:25.277Z,94.45
2019-05-20T00:23:25.278Z,95.03
2019-05-20T00:24:25.372Z,95.22
2019-05-20T00:25:25.304Z,95.22
2019-05-20T00:26:25.311Z,94.93
2019-05-20T00:27:25.329Z,95.31
2019-05-20T00:28:25.327Z,95.41
2019-05-20T00:29:25.337Z,95.22
2019-05-20T00:30:25.347Z,95.12
2019-05-20T00:31:25.358Z,95.41
2019-05-20T00:32:40.319Z,94.98
2019-05-20T00:33:25.377Z,95.46
2019-05-20T00:34:34.645Z,95.65
2019-05-20T00:35:25.392Z,95.46
2019-05-20T00:36:25.403Z,95.27
2019-05-20T00:37:25.415Z,95.56
2019-05-20T00:38:25.415Z,94.31
2019-05-20T00:39:25.429Z,94.21
2019-05-20T00:40:25.443Z,95.27
2019-05-20T00:41:25.447Z,95.07
2019-05-20T00:42:25.460Z,95.17
2019-05-20T00:43:25.471Z,95.17
2019-05-20T00:44:25.474Z,94.40
2019-05-20T00:45:25.486Z,94.31
2019-05-20T00:46:25.498Z,93.93
2019-05-20T00:47:25.503Z,94.21
2019-05-20T00:48:25.511Z,94.31
2019-05-20T00:49:25.519Z,93.83
2019-05-20T00:50:25.530Z,93.74
2019-05-20T00:51:25.538Z,93.74
2019-05-20T00:52:25.545Z,93.74
2019-05-20T00:53:25.558Z,93.83
2019-05-20T00:54:25.567Z,94.12
2019-05-20T00:55:25.577Z,93.64
2019-05-20T00:56:25.584Z,93.93
2019-05-20T00:57:25.603Z,94.07
2019-05-20T00:58:25.600Z,93.98
2019-05-20T00:59:25.624Z,93.64
2019-05-20T01:00:25.620Z,94.21
2019-05-20T01:01:25.629Z,94.65
2019-05-20T01:02:25.640Z,94.69
2019-05-20T01:03:25.651Z,94.26
2019-05-20T01:04:25.663Z,94.65
2019-05-20T01:05:25.674Z,94.26
2019-05-20T01:06:25.679Z,95.22
2019-05-20T01:07:25.684Z,95.36
2019-05-20T01:08:25.703Z,95.27
2019-05-20T01:09:25.716Z,95.31
2019-05-20T01:10:25.711Z,95.31
2019-05-20T01:11:25.722Z,95.36
2019-05-20T01:12:25.729Z,95.12
2019-05-20T01:13:25.736Z,95.46
2019-05-20T01:14:25.752Z,95.56
2019-05-20T01:15:25.760Z,95.27
2019-05-20T01:16:25.774Z,95.22
2019-05-20T01:17:25.775Z,94.98
2019-05-20T01:18:25.786Z,95.36
2019-05-20T01:19:25.798Z,95.27
2019-05-20T01:20:25.806Z,95.07
2019-05-20T01:21:25.811Z,95.22
2019-05-20T01:22:25.823Z,95.56
2019-05-20T01:23:25.832Z,95.41
2019-05-20T01:24:25.842Z,94.89
2019-05-20T01:25:25.853Z,95.07
2019-05-20T01:26:25.859Z,95.46
2019-05-20T01:27:25.879Z,95.36
2019-05-20T01:28:25.872Z,95.56
2019-05-20T01:29:25.885Z,95.46
2019-05-20T01:30:25.899Z,95.94
2019-05-20T01:31:25.907Z,95.94
2019-05-20T01:32:25.911Z,95.84
2019-05-20T01:33:25.922Z,96.32
2019-05-20T01:34:25.936Z,96.03
2019-05-20T01:35:25.946Z,95.84
2019-05-20T01:36:25.955Z,95.56
2019-05-20T01:37:25.964Z,95.84
2019-05-20T01:38:25.964Z,95.75
2019-05-20T01:39:25.992Z,95.56
2019-05-20T01:40:25.986Z,95.84
2019-05-20T01:41:25.998Z,95.75
2019-05-20T01:42:26.003Z,95.36
2019-05-20T01:43:26.014Z,95.27
2019-05-20T01:44:26.032Z,94.31
2019-05-20T01:45:26.038Z,94.79
2019-05-20T01:46:26.051Z,94.02
2019-05-20T01:47:26.052Z,94.50
2019-05-20T01:48:26.061Z,94.60
2019-05-20T01:49:26.068Z,95.46
2019-05-20T01:50:26.087Z,95.17
2019-05-20T01:51:26.089Z,95.27
2019-05-20T01:52:26.097Z,95.07
2019-05-20T01:53:26.109Z,95.27
2019-05-20T01:54:26.113Z,95.46
2019-05-20T01:55:26.128Z,95.27
2019-05-20T01:56:26.131Z,94.98
2019-05-20T01:57:26.137Z,95.07
2019-05-20T01:58:26.146Z,95.36
2019-05-20T01:59:26.156Z,95.17
2019-05-20T02:00:26.173Z,95.17
2019-05-20T02:01:26.180Z,95.17
2019-05-20T02:02:26.187Z,94.79
2019-05-20T02:03:31.815Z,95.36
2019-05-20T02:04:26.210Z,95.46
2019-05-20T02:05:26.220Z,95.46
2019-05-20T02:06:26.231Z,95.07
2019-05-20T02:07:26.234Z,94.89
2019-05-20T02:08:26.244Z,94.98
2019-05-20T02:09:26.253Z,94.98
2019-05-20T02:10:26.262Z,95.27
2019-05-20T02:11:26.286Z,95.27
2019-05-20T02:12:26.283Z,95.27
2019-05-20T02:13:26.288Z,94.98
2019-05-20T02:14:26.306Z,95.36
2019-05-20T02:15:26.312Z,94.98
2019-05-20T02:16:26.325Z,94.98
2019-05-20T02:17:26.329Z,95.27
2019-05-20T02:18:26.340Z,95.56
2019-05-20T02:19:26.345Z,95.36
2019-05-20T02:20:26.359Z,95.46
2019-05-20T02:21:26.364Z,95.65
2019-05-20T02:22:26.379Z,95.36
2019-05-20T02:23:26.388Z,95.36
2019-05-20T02:24:26.394Z,95.36
2019-05-20T02:25:26.399Z,95.17
2019-05-20T02:26:26.410Z,96.13
2019-05-20T02:27:26.431Z,95.07
2019-05-20T02:28:26.428Z,95.27
2019-05-20T02:29:26.438Z,95.56
2019-05-20T02:30:26.452Z,95.46
2019-05-20T02:31:26.455Z,96.03
2019-05-20T02:32:26.481Z,95.94
2019-05-20T02:33:26.475Z,96.13
2019-05-20T02:34:26.485Z,95.27
2019-05-20T02:35:26.497Z,94.60
2019-05-20T02:36:26.504Z,95.07
2019-05-20T02:37:26.514Z,95.12
2019-05-20T02:38:26.524Z,95.61
2019-05-20T02:39:26.953Z,95.41
2019-05-20T02:40:26.536Z,95.61
2019-05-20T02:41:26.553Z,96.37
2019-05-20T02:42:26.590Z,96.27
2019-05-20T02:43:26.566Z,95.98
2019-05-20T02:44:26.575Z,97.04
2019-05-20T02:45:26.581Z,96.47
2019-05-20T02:46:26.596Z,96.66
2019-05-20T02:47:26.603Z,96.47
2019-05-20T02:48:26.613Z,96.13
2019-05-20T02:49:26.625Z,96.61
2019-05-20T02:50:26.630Z,97.28
2019-05-20T02:51:26.641Z,98.14
2019-05-20T02:52:26.658Z,97.56
2019-05-20T02:53:26.661Z,97.75
2019-05-20T02:54:26.671Z,98.28
2019-05-20T02:55:26.676Z,98.09
2019-05-20T02:56:26.682Z,98.43
2019-05-20T02:57:26.694Z,98.61
2019-05-20T02:58:26.704Z,98.61
2019-05-20T02:59:26.711Z,98.71
2019-05-20T03:00:26.717Z,98.71
2019-05-20T03:01:26.725Z,98.81
2019-05-20T03:02:26.736Z,98.81
2019-05-20T03:03:26.747Z,98.90
2019-05-20T03:04:26.762Z,98.71
2019-05-20T03:05:26.763Z,98.71
2019-05-20T03:06:26.772Z,98.81
2019-05-20T03:07:26.777Z,98.43
2019-05-20T03:08:26.790Z,98.61
2019-05-20T03:09:26.799Z,98.81
2019-05-20T03:10:26.807Z,98.24
2019-05-20T03:11:26.817Z,97.85
2019-05-20T03:12:26.825Z,97.95
2019-05-20T03:13:26.835Z,98.04
2019-05-20T03:14:26.838Z,99.10
2019-05-20T03:15:26.853Z,98.71
2019-05-20T03:16:26.864Z,97.85
2019-05-20T03:17:26.870Z,98.14
2019-05-20T03:18:26.888Z,97.95
2019-05-20T03:19:26.888Z,98.24
2019-05-20T03:20:26.892Z,98.24
2019-05-20T03:21:26.898Z,98.04
2019-05-20T03:22:26.914Z,98.04
2019-05-20T03:23:26.920Z,98.14
2019-05-20T03:24:26.928Z,97.85
2019-05-20T03:25:26.940Z,98.14
2019-05-20T03:26:26.942Z,98.43
2019-05-20T03:27:26.957Z,97.66
2019-05-20T03:28:26.966Z,97.71
2019-05-20T03:29:26.973Z,97.56
2019-05-20T03:30:26.983Z,97.80
2019-05-20T03:31:26.997Z,97.90
2019-05-20T03:32:27.003Z,97.13
2019-05-20T03:33:27.022Z,96.47
2019-05-20T03:34:45.487Z,96.56
2019-05-20T03:35:27.025Z,96.84
2019-05-20T03:36:27.036Z,96.56
2019-05-20T03:37:27.050Z,96.94
2019-05-20T03:38:27.058Z,96.56
2019-05-20T03:39:27.066Z,96.18
2019-05-20T03:40:27.078Z,96.75
2019-05-20T03:41:27.088Z,96.56
2019-05-20T03:42:27.089Z,96.37
2019-05-20T03:43:27.102Z,96.66
2019-05-20T03:44:27.111Z,96.66
2019-05-20T03:45:27.116Z,96.18
2019-05-20T03:46:27.125Z,96.56
2019-05-20T03:47:27.136Z,96.18
2019-05-20T03:48:27.145Z,96.18
2019-05-20T03:49:27.150Z,96.56
2019-05-20T03:50:27.164Z,96.56
2019-05-20T03:51:27.173Z,96.84
2019-05-20T03:52:27.178Z,96.56
2019-05-20T03:53:27.190Z,96.47
2019-05-20T03:54:27.195Z,96.27
2019-05-20T03:55:27.213Z,96.47
2019-05-20T03:56:27.213Z,96.18
2019-05-20T03:57:27.224Z,96.56
2019-05-20T03:58:27.237Z,96.56
2019-05-20T03:59:27.242Z,96.37
2019-05-20T04:00:27.253Z,96.47
2019-05-20T04:01:27.267Z,96.37
2019-05-20T04:02:27.271Z,96.47
2019-05-20T04:03:27.278Z,96.56
2019-05-20T04:04:27.288Z,96.18
2019-05-20T04:05:27.301Z,96.37
2019-05-20T04:06:27.314Z,96.27
2019-05-20T04:07:27.312Z,96.94
2019-05-20T04:08:27.320Z,95.98
2019-05-20T04:09:27.332Z,96.56
2019-05-20T04:10:27.350Z,96.66
2019-05-20T04:11:27.349Z,96.37
2019-05-20T04:12:27.358Z,96.27
2019-05-20T04:13:27.370Z,96.27
2019-05-20T04:14:27.398Z,96.84
2019-05-20T04:15:27.384Z,96.84
2019-05-20T04:16:27.394Z,96.94
2019-05-20T04:17:27.404Z,96.47
2019-05-20T04:18:27.411Z,96.84
2019-05-20T04:19:27.417Z,96.56
2019-05-20T04:20:27.434Z,96.37
2019-05-20T04:21:27.436Z,96.84
2019-05-20T04:22:27.802Z,97.04
2019-05-20T04:23:27.455Z,96.56
2019-05-20T04:24:27.465Z,96.47
2019-05-20T04:25:27.475Z,96.75
2019-05-20T04:26:27.480Z,96.27
2019-05-20T04:27:27.490Z,96.75
2019-05-20T04:28:27.506Z,95.79
2019-05-20T04:29:27.514Z,96.27
2019-05-20T04:30:27.527Z,96.47
2019-05-20T04:31:27.526Z,96.37
2019-05-20T04:32:27.540Z,96.47
2019-05-20T04:33:27.548Z,96.18
2019-05-20T04:34:27.552Z,96.47
2019-05-20T04:35:27.562Z,96.47
2019-05-20T04:36:27.568Z,96.18
2019-05-20T04:37:27.591Z,96.84
2019-05-20T04:38:27.589Z,96.66
2019-05-20T04:39:27.608Z,96.47
2019-05-20T04:40:27.607Z,95.89
2019-05-20T04:41:27.615Z,96.84
2019-05-20T04:42:27.625Z,96.37
2019-05-20T04:43:27.638Z,96.37
2019-05-20T04:44:27.643Z,95.79
2019-05-20T04:45:27.658Z,96.08
2019-05-20T04:46:27.665Z,96.18
2019-05-20T04:47:27.672Z,96.37
2019-05-20T04:48:27.685Z,95.98
2019-05-20T04:49:27.688Z,96.18
2019-05-20T04:50:27.697Z,96.18
2019-05-20T04:51:27.711Z,96.08
2019-05-20T04:52:27.719Z,96.27
2019-05-20T04:53:27.725Z,95.79
2019-05-20T04:54:27.744Z,96.18
2019-05-20T04:55:27.737Z,95.98
2019-05-20T04:56:29.340Z,96.08
2019-05-20T04:57:27.768Z,95.89
2019-05-20T04:58:27.767Z,96.37
2019-05-20T04:59:27.780Z,96.47
2019-05-20T05:00:27.789Z,96.18
2019-05-20T05:01:27.800Z,95.89
2019-05-20T05:02:27.803Z,96.08
2019-05-20T05:03:27.823Z,96.08
2019-05-20T05:04:27.821Z,96.08
2019-05-20T05:05:37.276Z,95.51
2019-05-20T05:06:27.835Z,95.79
2019-05-20T05:07:27.852Z,95.70
2019-05-20T05:08:27.859Z,96.08
2019-05-20T05:09:27.869Z,95.12
2019-05-20T05:10:27.880Z,95.79
2019-05-20T05:11:27.894Z,96.08
2019-05-20T05:12:27.893Z,95.79
2019-05-20T05:13:27.903Z,95.41
2019-05-20T05:14:27.913Z,95.89
2019-05-20T05:15:27.920Z,95.41
2019-05-20T05:16:27.930Z,95.79
2019-05-20T05:17:27.941Z,96.08
2019-05-20T05:18:27.952Z,95.79
2019-05-20T05:19:27.958Z,95.70
2019-05-20T05:20:27.965Z,95.79
2019-05-20T05:21:27.975Z,95.61
2019-05-20T05:22:27.987Z,95.89
2019-05-20T05:23:27.998Z,96.18
2019-05-20T05:24:28.009Z,96.27
2019-05-20T05:25:28.011Z,96.56
2019-05-20T05:26:28.020Z,95.98
2019-05-20T05:27:28.039Z,96.13
2019-05-20T05:28:28.037Z,96.13
2019-05-20T05:29:28.046Z,95.51
2019-05-20T05:30:28.054Z,96.27
2019-05-20T05:31:28.064Z,95.89
2019-05-20T05:32:28.074Z,95.61
2019-05-20T05:33:28.093Z,95.61
2019-05-20T05:34:28.092Z,96.08
2019-05-20T05:35:28.102Z,95.22
2019-05-20T05:36:28.112Z,95.56
2019-05-20T05:37:28.124Z,96.22
2019-05-20T05:38:28.127Z,95.94
2019-05-20T05:39:28.134Z,95.75
2019-05-20T05:40:28.145Z,95.46
2019-05-20T05:41:28.156Z,95.27
2019-05-20T05:42:28.163Z,95.65
2019-05-20T05:43:28.176Z,95.27
2019-05-20T05:44:28.181Z,95.56
2019-05-20T05:45:29.294Z,95.84
2019-05-20T05:46:28.200Z,96.13
2019-05-20T05:47:28.210Z,95.27
2019-05-20T05:48:28.220Z,94.89
2019-05-20T05:49:28.231Z,95.46
2019-05-20T05:50:28.238Z,95.27
2019-05-20T05:51:28.247Z,94.69
2019-05-20T05:52:28.251Z,94.89
2019-05-20T05:53:28.266Z,95.36
2019-05-20T05:54:28.281Z,94.40
2019-05-20T05:55:28.283Z,94.21
2019-05-20T05:56:28.293Z,94.50
2019-05-20T05:57:28.299Z,94.74
2019-05-20T05:58:28.309Z,95.22
2019-05-20T05:59:28.318Z,95.31
2019-05-20T06:00:28.327Z,95.79
2019-05-20T06:01:28.334Z,95.89
2019-05-20T06:02:28.348Z,96.18
2019-05-20T06:03:28.450Z,94.74
2019-05-20T06:04:28.365Z,94.17
2019-05-20T06:05:31.548Z,94.84
2019-05-20T06:06:28.385Z,94.55
2019-05-20T06:07:28.391Z,95.22
2019-05-20T06:08:28.402Z,95.41
2019-05-20T06:09:28.417Z,95.70
2019-05-20T06:10:28.419Z,96.08
2019-05-20T06:11:28.432Z,96.08
2019-05-20T06:12:28.443Z,95.98
2019-05-20T06:13:28.448Z,94.74
2019-05-20T06:14:28.463Z,94.84
2019-05-20T06:15:28.468Z,94.45
2019-05-20T06:16:36.452Z,95.31
2019-05-20T06:17:28.488Z,94.93
2019-05-20T06:18:28.495Z,94.74
2019-05-20T06:19:28.508Z,94.17
2019-05-20T06:20:28.512Z,94.64
2019-05-20T06:21:28.523Z,94.55
2019-05-20T06:22:28.530Z,95.03
2019-05-20T06:23:28.538Z,95.12
2019-05-20T06:24:28.548Z,95.41
2019-05-20T06:25:28.569Z,95.12
2019-05-20T06:26:28.572Z,95.41
2019-05-20T06:27:28.610Z,95.12
2019-05-20T06:28:28.589Z,95.41
2019-05-20T06:29:28.626Z,95.89
2019-05-20T06:30:28.634Z,95.22
2019-05-20T06:31:28.619Z,95.22
2019-05-20T06:32:28.628Z,94.74
2019-05-20T06:33:28.642Z,94.55
2019-05-20T06:34:28.643Z,94.84
2019-05-20T06:35:28.653Z,94.64
2019-05-20T06:36:28.670Z,94.55
2019-05-20T06:37:28.672Z,93.88
2019-05-20T06:38:28.679Z,93.98
2019-05-20T06:39:28.694Z,94.74
2019-05-20T06:40:28.704Z,93.78
2019-05-20T06:41:28.710Z,93.49
2019-05-20T06:42:28.714Z,93.02
2019-05-20T06:43:28.726Z,93.78
2019-05-20T06:44:28.738Z,93.69
2019-05-20T06:45:28.777Z,93.88
2019-05-20T06:46:28.749Z,94.07
2019-05-20T06:47:28.765Z,93.88
2019-05-20T06:48:28.772Z,94.84
2019-05-20T06:49:28.788Z,94.98
2019-05-20T06:50:29.737Z,95.07
2019-05-20T06:51:28.806Z,94.21
2019-05-20T06:52:35.996Z,94.69
2019-05-20T06:53:28.821Z,94.89
2019-05-20T06:54:28.829Z,94.40
2019-05-20T06:55:28.842Z,95.17
2019-05-20T06:56:28.848Z,95.27
2019-05-20T06:57:28.860Z,94.50
2019-05-20T06:58:28.866Z,94.60
2019-05-20T06:59:28.874Z,95.36
2019-05-20T07:00:28.880Z,94.98
2019-05-20T07:01:28.891Z,95.36
2019-05-20T07:02:28.909Z,96.13
2019-05-20T07:03:28.911Z,95.94
2019-05-20T07:04:28.925Z,95.70
2019-05-20T07:05:28.933Z,95.89
2019-05-20T07:06:44.890Z,96.56
2019-05-20T07:07:28.954Z,96.47
2019-05-20T07:08:28.969Z,96.51
2019-05-20T07:09:28.968Z,96.27
2019-05-20T07:10:28.977Z,96.37
2019-05-20T07:11:29.042Z,96.18
2019-05-20T07:12:40.598Z,96.47
2019-05-20T07:13:29.003Z,96.84
2019-05-20T07:14:29.016Z,96.66
2019-05-20T07:15:29.022Z,97.23
2019-05-20T07:16:29.028Z,97.04
2019-05-20T07:17:29.039Z,97.42
2019-05-20T07:18:29.085Z,97.52
2019-05-20T07:19:29.059Z,97.90
2019-05-20T07:20:29.084Z,98.09
2019-05-20T07:21:29.073Z,97.52
2019-05-20T07:22:29.083Z,97.90
2019-05-20T07:23:29.094Z,97.52
2019-05-20T07:24:29.101Z,97.90
2019-05-20T07:25:29.313Z,97.71
2019-05-20T07:26:29.135Z,98.28
2019-05-20T07:27:29.142Z,97.80
2019-05-20T07:28:29.159Z,96.94
2019-05-20T07:29:29.159Z,97.18
2019-05-20T07:30:29.208Z,97.28
2019-05-20T07:31:29.165Z,97.38
2019-05-20T07:32:29.193Z,96.99
2019-05-20T07:33:29.183Z,97.18
2019-05-20T07:34:29.192Z,96.42
2019-05-20T07:35:30.986Z,96.99
2019-05-20T07:36:29.220Z,97.38
2019-05-20T07:37:29.234Z,96.99
2019-05-20T07:38:29.234Z,96.70
2019-05-20T07:39:29.233Z,96.94
2019-05-20T07:40:29.253Z,97.14
2019-05-20T07:41:29.257Z,97.23
2019-05-20T07:42:29.263Z,96.27
2019-05-20T07:43:29.275Z,95.89
2019-05-20T07:44:29.289Z,96.08
2019-05-20T07:45:29.290Z,96.13
2019-05-20T07:46:29.317Z,96.03
2019-05-20T07:47:29.310Z,96.61
2019-05-20T07:48:29.351Z,96.22
2019-05-20T07:49:29.331Z,96.70
2019-05-20T07:50:29.338Z,96.99
2019-05-20T07:51:29.345Z,96.70
2019-05-20T07:52:29.361Z,97.18
2019-05-20T07:53:29.440Z,97.95
2019-05-20T07:54:29.374Z,97.66
2019-05-20T07:55:29.378Z,98.05
2019-05-20T07:56:29.392Z,97.38
2019-05-20T07:57:29.400Z,97.42
2019-05-20T07:58:29.432Z,97.33
2019-05-20T07:59:29.441Z,97.38
2019-05-20T08:00:29.449Z,96.89
2019-05-20T08:01:29.439Z,97.38
2019-05-20T08:02:29.495Z,97.42
2019-05-20T08:03:29.467Z,98.00
2019-05-20T08:04:29.902Z,98.10
2019-05-20T08:05:29.472Z,97.90
2019-05-20T08:06:29.479Z,97.04
2019-05-20T08:07:49.902Z,96.42
2019-05-20T08:08:29.497Z,97.23
2019-05-20T08:09:29.548Z,96.99
2019-05-20T08:10:29.523Z,96.94
2019-05-20T08:11:29.535Z,97.61
2019-05-20T08:12:29.554Z,97.42
2019-05-20T08:13:29.550Z,98.19
2019-05-20T08:14:29.557Z,97.66
2019-05-20T08:15:29.560Z,97.38
2019-05-20T08:16:29.606Z,98.10
2019-05-20T08:17:29.587Z,98.19
2019-05-20T08:18:29.593Z,97.61
2019-05-20T08:19:29.609Z,97.09
2019-05-20T08:20:29.610Z,97.33
2019-05-20T08:21:29.620Z,97.23
2019-05-20T08:22:29.626Z,97.42
2019-05-20T08:23:29.632Z,97.14
2019-05-20T08:24:29.646Z,96.66
2019-05-20T08:25:29.654Z,97.52
2019-05-20T08:26:29.709Z,98.10
2019-05-20T08:27:29.676Z,97.42
2019-05-20T08:28:29.685Z,97.04
2019-05-20T08:29:29.690Z,97.14
2019-05-20T08:30:29.702Z,97.04
2019-05-20T08:31:29.718Z,97.42
2019-05-20T08:32:29.727Z,97.76
2019-05-20T08:33:29.725Z,96.99
2019-05-20T08:34:29.765Z,96.80
2019-05-20T08:35:29.748Z,96.61
2019-05-20T08:36:29.761Z,96.51
2019-05-20T08:37:44.310Z,96.61
2019-05-20T08:38:29.773Z,96.51
2019-05-20T08:39:29.786Z,97.09
2019-05-20T08:40:29.787Z,96.51
2019-05-20T08:41:29.832Z,95.94
2019-05-20T08:42:29.812Z,96.13
2019-05-20T08:43:29.823Z,97.09
2019-05-20T08:44:29.829Z,96.70
2019-05-20T08:45:29.845Z,96.70
2019-05-20T08:46:29.852Z,96.70
2019-05-20T08:47:29.858Z,96.32
2019-05-20T08:48:29.871Z,96.42
2019-05-20T08:49:29.884Z,95.84
2019-05-20T08:50:29.887Z,96.80
2019-05-20T08:51:29.897Z,96.89
2019-05-20T08:52:29.915Z,96.89
2019-05-20T08:53:29.921Z,96.94
2019-05-20T08:54:29.922Z,96.37
2019-05-20T08:55:29.941Z,96.18
2019-05-20T08:56:29.946Z,96.18
2019-05-20T08:57:29.962Z,96.27
2019-05-20T08:58:29.986Z,95.79
2019-05-20T08:59:29.980Z,96.08
2019-05-20T09:00:29.981Z,95.98
2019-05-20T09:01:30.006Z,95.65
2019-05-20T09:02:30.050Z,95.46
2019-05-20T09:03:30.607Z,95.46
2019-05-20T09:04:30.018Z,95.55
2019-05-20T09:05:30.045Z,94.35
2019-05-20T09:06:30.062Z,94.88
2019-05-20T09:07:30.057Z,95.46
2019-05-20T09:08:30.067Z,95.46
2019-05-20T09:09:30.111Z,95.17
2019-05-20T09:10:30.080Z,94.31
2019-05-20T09:11:30.093Z,94.40
2019-05-20T09:12:30.106Z,94.98
2019-05-20T09:13:30.115Z,95.46
2019-05-20T09:14:30.126Z,94.31
2019-05-20T09:15:30.179Z,94.31
2019-05-20T09:16:30.173Z,94.69
2019-05-20T09:17:30.166Z,94.31
2019-05-20T09:18:30.161Z,94.31
2019-05-20T09:19:30.396Z,94.31
2019-05-20T09:20:30.180Z,94.31
2019-05-20T09:21:30.196Z,94.12
2019-05-20T09:22:30.229Z,94.49
2019-05-20T09:23:30.215Z,95.36
2019-05-20T09:24:30.279Z,94.69
2019-05-20T09:25:30.238Z,94.88
2019-05-20T09:26:30.242Z,94.69
2019-05-20T09:27:30.251Z,94.31
2019-05-20T09:28:30.262Z,94.88
2019-05-20T09:29:30.290Z,94.21
2019-05-20T09:30:30.286Z,94.79
2019-05-20T09:31:30.300Z,95.55
2019-05-20T09:32:30.303Z,94.98
2019-05-20T09:33:30.317Z,95.36
2019-05-20T09:34:30.321Z,94.88
2019-05-20T09:35:30.350Z,95.65
2019-05-20T09:36:30.342Z,95.46
2019-05-20T09:37:30.353Z,94.64
2019-05-20T09:38:30.355Z,94.84
2019-05-20T09:39:30.368Z,95.60
2019-05-20T09:40:30.377Z,95.60
2019-05-20T09:41:30.400Z,95.60
2019-05-20T09:42:30.403Z,95.70
2019-05-20T09:43:30.407Z,95.79
2019-05-20T09:44:30.417Z,95.70
2019-05-20T09:45:30.434Z,95.41
2019-05-20T09:46:30.439Z,95.41
2019-05-20T09:47:30.447Z,95.70
2019-05-20T09:48:30.461Z,95.70
2019-05-20T09:49:30.468Z,95.21
2019-05-20T09:50:30.482Z,95.12
2019-05-20T09:51:30.490Z,96.22
2019-05-20T09:52:30.503Z,96.13
2019-05-20T09:53:30.505Z,96.80
2019-05-20T09:54:30.520Z,96.42
2019-05-20T09:55:30.535Z,96.80
2019-05-20T09:56:30.537Z,96.61
2019-05-20T09:57:30.545Z,96.89
2019-05-20T09:58:30.557Z,97.47
2019-05-20T09:59:42.566Z,97.28
2019-05-20T10:00:30.575Z,96.80
2019-05-20T10:01:30.591Z,97.47
2019-05-20T10:02:37.555Z,97.28
2019-05-20T10:03:30.602Z,98.05
2019-05-20T10:04:30.612Z,97.33
2019-05-20T10:05:30.625Z,97.23
2019-05-20T10:06:30.633Z,97.04
2019-05-20T10:07:30.644Z,97.04
2019-05-20T10:08:37.924Z,97.61
2019-05-20T10:09:30.659Z,97.33
2019-05-20T10:10:30.670Z,97.80
2019-05-20T10:11:30.681Z,98.33
2019-05-20T10:12:45.324Z,98.38
2019-05-20T10:13:30.695Z,97.90
2019-05-20T10:14:30.712Z,97.80
2019-05-20T10:15:30.716Z,97.71
2019-05-20T10:16:30.727Z,97.80
2019-05-20T10:17:30.737Z,98.19
2019-05-20T10:18:37.368Z,97.90
2019-05-20T10:19:30.754Z,98.28
2019-05-20T10:20:30.767Z,99.05
2019-05-20T10:21:30.775Z,99.15
2019-05-20T10:22:31.980Z,98.86
2019-05-20T10:23:30.792Z,98.86
2019-05-20T10:24:30.818Z,99.34
2019-05-20T10:25:30.814Z,99.15
2019-05-20T10:26:30.818Z,99.72
2019-05-20T10:27:30.828Z,99.82
2019-05-20T10:28:30.839Z,99.82
2019-05-20T10:29:30.849Z,99.99
2019-05-20T10:30:30.860Z,99.72
2019-05-20T10:31:30.866Z,99.72
2019-05-20T10:32:30.875Z,99.63
2019-05-20T10:33:30.886Z,99.91
2019-05-20T10:34:30.895Z,99.43
2019-05-20T10:35:30.906Z,99.99
2019-05-20T10:36:30.915Z,99.82
2019-05-20T10:37:30.929Z,99.91
2019-05-20T10:38:30.929Z,99.99
2019-05-20T10:39:30.941Z,99.99
2019-05-20T10:40:30.951Z,99.99
2019-05-20T10:41:30.975Z,99.91
2019-05-20T10:42:30.967Z,99.99
2019-05-20T10:43:30.980Z,99.99
2019-05-20T10:44:31.004Z,99.91
2019-05-20T10:45:30.991Z,99.34
2019-05-20T10:46:31.009Z,99.99
2019-05-20T10:47:31.026Z,99.99
2019-05-20T10:48:31.039Z,99.99
2019-05-20T10:49:31.065Z,99.99
2019-05-20T10:50:31.050Z,99.99
2019-05-20T10:51:31.051Z,99.99
2019-05-20T10:52:31.062Z,99.99
2019-05-20T10:53:31.076Z,99.99
2019-05-20T10:54:31.080Z,99.99
2019-05-20T10:55:31.117Z,99.99
2019-05-20T10:56:31.099Z,99.99
2019-05-20T10:57:31.103Z,99.99
2019-05-20T10:58:31.137Z,99.99
2019-05-20T10:59:31.124Z,99.99
2019-05-20T11:00:31.130Z,99.99
2019-05-20T11:01:31.142Z,99.99
2019-05-20T11:02:31.441Z,99.82
2019-05-20T11:03:31.160Z,99.91
2019-05-20T11:04:35.307Z,99.99
2019-05-20T11:05:31.191Z,99.91
2019-05-20T11:06:31.189Z,99.82
2019-05-20T11:07:31.194Z,99.91
2019-05-20T11:08:31.209Z,99.99
2019-05-20T11:09:31.212Z,99.99
2019-05-20T11:10:31.224Z,99.77
2019-05-20T11:11:31.231Z,99.77
2019-05-20T11:12:31.252Z,99.96
2019-05-20T11:13:31.244Z,99.87
2019-05-20T11:14:31.262Z,99.44
2019-05-20T11:15:31.269Z,99.24
2019-05-20T11:16:31.278Z,98.86
2019-05-20T11:17:31.297Z,99.39
2019-05-20T11:18:31.299Z,99.10
2019-05-20T11:19:31.307Z,98.14
2019-05-20T11:20:31.319Z,98.58
2019-05-20T11:21:31.325Z,97.24
2019-05-20T11:22:31.334Z,96.94
2019-05-20T11:23:31.386Z,96.61
2019-05-20T11:24:31.349Z,96.13
2019-05-20T11:25:31.443Z,96.75
2019-05-20T11:26:31.372Z,96.08
2019-05-20T11:27:31.386Z,96.47
2019-05-20T11:28:31.390Z,95.50
2019-05-20T11:29:31.402Z,93.58
2019-05-20T11:30:31.416Z,93.49
2019-05-20T11:31:31.426Z,93.39
2019-05-20T11:32:31.435Z,92.24
2019-05-20T11:33:31.449Z,93.29
2019-05-20T11:34:31.485Z,93.19
2019-05-20T11:35:31.478Z,93.96
2019-05-20T11:36:31.475Z,94.06
2019-05-20T11:37:31.489Z,93.68
2019-05-20T11:38:31.549Z,93.19
2019-05-20T11:39:34.024Z,93.19
2019-05-20T11:40:31.521Z,93.39
2019-05-20T11:41:54.515Z,92.43
2019-05-20T11:42:31.542Z,91.56
2019-05-20T11:43:31.547Z,93.01
2019-05-20T11:44:31.554Z,92.33
2019-05-20T11:45:31.566Z,92.14
2019-05-20T11:46:31.581Z,92.72
2019-05-20T11:47:31.595Z,93.19
2019-05-20T11:48:31.628Z,93.87
2019-05-20T11:49:31.615Z,92.43
2019-05-20T11:50:31.636Z,91.23
2019-05-20T11:51:31.635Z,91.90
2019-05-20T11:52:31.657Z,92.10
2019-05-20T11:53:31.657Z,92.86
2019-05-20T11:54:31.667Z,94.40
2019-05-20T11:55:31.737Z,93.73
2019-05-20T11:56:31.691Z,94.78
2019-05-20T11:57:31.706Z,94.78
2019-05-20T11:58:31.708Z,95.94
2019-05-20T11:59:31.728Z,94.59
2019-05-20T12:00:31.773Z,94.59
2019-05-20T12:01:31.743Z,95.17
2019-05-20T12:02:31.752Z,95.26
2019-05-20T12:03:31.763Z,94.21
2019-05-20T12:04:31.771Z,93.05
2019-05-20T12:05:31.783Z,93.05
2019-05-20T12:06:31.796Z,93.97
2019-05-20T12:07:31.802Z,94.35
2019-05-20T12:08:31.811Z,94.40
2019-05-20T12:09:47.812Z,95.31
2019-05-20T12:10:31.838Z,94.35
2019-05-20T12:11:31.882Z,95.03
2019-05-20T12:12:31.852Z,94.93
2019-05-20T12:13:31.863Z,95.12
2019-05-20T12:14:31.933Z,95.12
2019-05-20T12:15:31.889Z,95.41
2019-05-20T12:16:31.898Z,94.64
2019-05-20T12:17:31.906Z,95.03
2019-05-20T12:18:31.920Z,95.89
2019-05-20T12:19:31.929Z,95.65
2019-05-20T12:20:31.939Z,95.60
2019-05-20T12:21:31.965Z,95.12
2019-05-20T12:22:31.983Z,94.93
2019-05-20T12:23:31.975Z,95.12
2019-05-20T12:24:31.986Z,95.41
2019-05-20T12:25:31.993Z,95.21
2019-05-20T12:26:32.008Z,95.55
2019-05-20T12:27:32.046Z,95.36
2019-05-20T12:28:32.021Z,95.84
2019-05-20T12:29:32.047Z,95.55
2019-05-20T12:30:32.053Z,96.13
2019-05-20T12:31:32.055Z,95.94
2019-05-20T12:32:32.059Z,95.07
2019-05-20T12:33:32.074Z,95.55
2019-05-20T12:34:32.158Z,95.65
2019-05-20T12:35:32.099Z,95.41
2019-05-20T12:36:32.102Z,95.41
2019-05-20T12:37:32.119Z,95.79
2019-05-20T12:38:32.125Z,96.37
2019-05-20T12:39:32.142Z,95.98
2019-05-20T12:40:32.162Z,96.66
2019-05-20T12:41:32.205Z,96.56
2019-05-20T12:42:32.189Z,97.23
2019-05-20T12:43:32.190Z,97.42
2019-05-20T12:44:32.178Z,98.28
2019-05-20T12:45:32.195Z,98.28
2019-05-20T12:46:32.202Z,97.33
2019-05-20T12:47:32.221Z,96.66
2019-05-20T12:48:32.220Z,96.94
2019-05-20T12:49:32.380Z,97.28
2019-05-20T12:50:32.255Z,96.80
2019-05-20T12:51:32.258Z,96.61
2019-05-20T12:52:32.264Z,97.09